| time (UTC) | temp C | wind direction | speed KPH | gust KPH | rain 1hr cm | rain 24hr cm | rain mn cm | humidity % | barometer mb |
| 20260906123201 | 24 | 278 | 20.9 | 24.1 | 0.00 | 0.00 | 0.00 | 36 | 1014.6 |
| 20260906122700 | 23 | 295 | 11.3 | 16.1 | 0.00 | 0.00 | 0.00 | 34 | 1014.2 |
| 20260906122200 | 24 | 301 | 19.3 | 22.5 | 0.00 | 0.00 | 0.00 | 33 | 1014.2 |
| 20260906121700 | 24 | 310 | 20.9 | 24.1 | 0.00 | 0.00 | 0.00 | 34 | 1014.6 |
| 20260906121200 | 24 | 216 | 25.7 | 33.8 | 0.00 | 0.00 | 0.00 | 33 | 1014.6 |
| 20260906120700 | 23 | 322 | 9.7 | 14.5 | 0.00 | 0.00 | 0.00 | 33 | 1014.2 |
| 20260906120201 | 23 | 283 | 17.7 | 22.5 | 0.00 | 0.00 | 0.00 | 34 | 1014.2 |
| 20260906115700 | 24 | 305 | 17.7 | 24.1 | 0.00 | 0.00 | 0.00 | 34 | 1014.6 |
| 20260906115200 | 23 | 312 | 19.3 | 25.7 | 0.00 | 0.00 | 0.00 | 35 | 1014.6 |
| 20260906114700 | 24 | 310 | 19.3 | 29.0 | 0.00 | 0.00 | 0.00 | 34 | 1014.6 |
| 20260906114201 | 24 | 336 | 14.5 | 20.9 | 0.00 | 0.00 | 0.00 | 35 | 1014.6 |
| 20260906113701 | 24 | 359 | 17.7 | 22.5 | 0.00 | 0.00 | 0.00 | 36 | 1014.6 |
| 20260906113200 | 24 | 275 | 22.5 | 29.0 | 0.00 | 0.00 | 0.00 | 36 | 1014.6 |
| 20260906112702 | 25 | 319 | 16.1 | 22.5 | 0.00 | 0.00 | 0.00 | 35 | 1014.6 |
| 20260906112200 | 24 | 306 | 17.7 | 22.5 | 0.00 | 0.00 | 0.00 | 36 | 1014.6 |
| 20260906111700 | 24 | 317 | 29.0 | 35.4 | 0.00 | 0.00 | 0.00 | 37 | 1014.6 |
| 20260906111202 | 24 | 333 | 20.9 | 32.2 | 0.00 | 0.00 | 0.00 | 36 | 1014.6 |
| 20260906110659 | 24 | 308 | 8.0 | 12.9 | 0.00 | 0.00 | 0.00 | 36 | 1014.6 |
| 20260906110200 | 24 | 280 | 24.1 | 29.0 | 0.00 | 0.00 | 0.00 | 35 | 1014.6 |
| 20260906105701 | 24 | 335 | 20.9 | 22.5 | 0.00 | 0.00 | 0.00 | 35 | 1014.6 |
| 20260906105200 | 25 | 323 | 14.5 | 22.5 | 0.00 | 0.00 | 0.00 | 35 | 1014.6 |
| 20260906104700 | 25 | 286 | 9.7 | 11.3 | 0.00 | 0.00 | 0.00 | 34 | 1014.6 |
| 20260906104200 | 24 | 286 | 16.1 | 22.5 | 0.00 | 0.00 | 0.00 | 35 | 1014.6 |
| 20260906103700 | 23 | 315 | 27.4 | 29.0 | 0.00 | 0.00 | 0.00 | 35 | 1014.6 |
| 20260906103200 | 23 | 307 | 16.1 | 16.1 | 0.00 | 0.00 | 0.00 | 36 | 1014.6 |
| 20260906102700 | 23 | 281 | 11.3 | 14.5 | 0.00 | 0.00 | 0.00 | 37 | 1014.6 |
| 20260906102200 | 23 | 296 | 20.9 | 35.4 | 0.00 | 0.00 | 0.00 | 37 | 1014.6 |
| 20260906101700 | 23 | 319 | 17.7 | 20.9 | 0.00 | 0.00 | 0.00 | 36 | 1014.6 |
| 20260906101200 | 23 | 291 | 9.7 | 14.5 | 0.00 | 0.00 | 0.00 | 38 | 1014.6 |
| 20260906100700 | 23 | 299 | 11.3 | 14.5 | 0.00 | 0.00 | 0.00 | 38 | 1014.9 |
| 20260906100201 | 23 | 318 | 17.7 | 22.5 | 0.00 | 0.00 | 0.00 | 37 | 1014.6 |
| 20260906095700 | 23 | 259 | 11.3 | 14.5 | 0.00 | 0.00 | 0.00 | 38 | 1014.9 |
| 20260906095200 | 23 | 285 | 20.9 | 25.7 | 0.00 | 0.00 | 0.00 | 37 | 1014.9 |
| 20260906094700 | 23 | 360 | 17.7 | 22.5 | 0.00 | 0.00 | 0.00 | 37 | 1014.6 |
| 20260906094200 | 23 | 339 | 17.7 | 20.9 | 0.00 | 0.00 | 0.00 | 36 | 1014.9 |
| 20260906093700 | 23 | 315 | 17.7 | 32.2 | 0.00 | 0.00 | 0.00 | 37 | 1014.6 |
| 20260906093200 | 23 | 314 | 22.5 | 29.0 | 0.00 | 0.00 | 0.00 | 38 | 1014.9 |
| 20260906092700 | 23 | 258 | 20.9 | 24.1 | 0.00 | 0.00 | 0.00 | 38 | 1014.9 |
| 20260906092200 | 22 | 358 | 11.3 | 14.5 | 0.00 | 0.00 | 0.00 | 39 | 1014.9 |
| 20260906091700 | 22 | 256 | 19.3 | 25.7 | 0.00 | 0.00 | 0.00 | 40 | 1014.9 |
| 20260906091200 | 22 | 304 | 24.1 | 33.8 | 0.00 | 0.00 | 0.00 | 39 | 1014.9 |
| 20260906090702 | 22 | 327 | 17.7 | 22.5 | 0.00 | 0.00 | 0.00 | 38 | 1015.2 |
| 20260906090200 | 22 | 285 | 20.9 | 25.7 | 0.00 | 0.00 | 0.00 | 38 | 1015.2 |
| 20260906085700 | 22 | 339 | 19.3 | 24.1 | 0.00 | 0.00 | 0.00 | 37 | 1015.2 |
| 20260906085201 | 22 | 311 | 24.1 | 35.4 | 0.00 | 0.00 | 0.00 | 37 | 1015.2 |
| 20260906084700 | 22 | 18 | 14.5 | 17.7 | 0.00 | 0.00 | 0.00 | 37 | 1015.2 |
| 20260906084200 | 22 | 278 | 14.5 | 17.7 | 0.00 | 0.00 | 0.00 | 36 | 1015.2 |
| 20260906083700 | 22 | 318 | 24.1 | 27.4 | 0.00 | 0.00 | 0.00 | 39 | 1015.2 |
| 20260906083200 | 22 | 298 | 6.4 | 8.0 | 0.00 | 0.00 | 0.00 | 38 | 1015.2 |
| 20260906082700 | 22 | 321 | 24.1 | 27.4 | 0.00 | 0.00 | 0.00 | 37 | 1015.2 |
| 20260906082200 | 22 | 251 | 1.6 | 3.2 | 0.00 | 0.00 | 0.00 | 39 | 1015.2 |
| 20260906081700 | 22 | 323 | 11.3 | 12.9 | 0.00 | 0.00 | 0.00 | 43 | 1014.9 |
| 20260906081200 | 22 | 315 | 8.0 | 14.5 | 0.00 | 0.00 | 0.00 | 42 | 1015.2 |
| 20260906080700 | 21 | 288 | 14.5 | 20.9 | 0.00 | 0.00 | 0.00 | 43 | 1015.2 |
| 20260906080201 | 22 | 299 | 14.5 | 20.9 | 0.00 | 0.00 | 0.00 | 42 | 1015.2 |
| 20260906075700 | 22 | 327 | 6.4 | 9.7 | 0.00 | 0.00 | 0.00 | 43 | 1015.2 |
| 20260906075201 | 21 | 315 | 16.1 | 24.1 | 0.00 | 0.00 | 0.00 | 40 | 1015.2 |
| 20260906074700 | 22 | 327 | 9.7 | 11.3 | 0.00 | 0.00 | 0.00 | 41 | 1015.2 |
| 20260906074200 | 21 | 25 | 14.5 | 24.1 | 0.00 | 0.00 | 0.00 | 42 | 1015.2 |
| 20260906073700 | 21 | 317 | 11.3 | 12.9 | 0.00 | 0.00 | 0.00 | 41 | 1015.2 |
| 20260906073200 | 22 | 331 | 19.3 | 24.1 | 0.00 | 0.00 | 0.00 | 39 | 1015.2 |
| 20260906072700 | 22 | 286 | 11.3 | 11.3 | 0.00 | 0.00 | 0.00 | 40 | 1015.2 |
| 20260906072202 | 22 | 329 | 8.0 | 12.9 | 0.00 | 0.00 | 0.00 | 41 | 1015.2 |
| 20260906071700 | 23 | 317 | 9.7 | 14.5 | 0.00 | 0.00 | 0.00 | 38 | 1015.2 |
| 20260906071200 | 22 | 281 | 3.2 | 3.2 | 0.00 | 0.00 | 0.00 | 36 | 1015.2 |
| 20260906070700 | 22 | 62 | 8.0 | 9.7 | 0.00 | 0.00 | 0.00 | 37 | 1015.2 |
| 20260906070200 | 22 | 328 | 4.8 | 9.7 | 0.00 | 0.00 | 0.00 | 37 | 1014.9 |
| 20260906065700 | 22 | 348 | 3.2 | 8.0 | 0.00 | 0.00 | 0.00 | 37 | 1015.2 |
| 20260906065201 | 22 | 351 | 8.0 | 9.7 | 0.00 | 0.00 | 0.00 | 35 | 1015.2 |
| 20260906064703 | 22 | 321 | 6.4 | 8.0 | 0.00 | 0.00 | 0.00 | 35 | 1015.2 |
| 20260906064200 | 22 | 139 | 3.2 | 4.8 | 0.00 | 0.00 | 0.00 | 39 | 1015.2 |
| 20260906063700 | 22 | 27 | 11.3 | 12.9 | 0.00 | 0.00 | 0.00 | 39 | 1014.9 |
| 20260906063200 | 22 | 303 | 3.2 | 3.2 | 0.00 | 0.00 | 0.00 | 41 | 1015.2 |
| 20260906062700 | 22 | 66 | 0.0 | 1.6 | 0.00 | 0.00 | 0.00 | 40 | 1015.2 |
| 20260906062200 | 22 | 126 | 4.8 | 8.0 | 0.00 | 0.00 | 0.00 | 40 | 1014.9 |
| 20260906061700 | 22 | 263 | 0.0 | 0.0 | 0.00 | 0.00 | 0.00 | 41 | 1014.9 |
| 20260906061200 | 21 | 110 | 4.8 | 8.0 | 0.00 | 0.00 | 0.00 | 42 | 1015.2 |
| 20260906060700 | 21 | 340 | 3.2 | 4.8 | 0.00 | 0.00 | 0.00 | 41 | 1014.9 |
| 20260906060203 | 20 | 350 | 9.7 | 11.3 | 0.00 | 0.00 | 0.00 | 42 | 1014.9 |
| 20260906055700 | 21 | 13 | 4.8 | 4.8 | 0.00 | 0.00 | 0.00 | 42 | 1014.9 |
| 20260906055200 | 21 | 69 | 4.8 | 4.8 | 0.00 | 0.00 | 0.00 | 42 | 1014.9 |
| 20260906054700 | 20 | 352 | 3.2 | 3.2 | 0.00 | 0.00 | 0.00 | 42 | 1014.6 |
| 20260906054200 | 21 | 9 | 12.9 | 12.9 | 0.00 | 0.00 | 0.00 | 41 | 1014.9 |
| 20260906053700 | 20 | 115 | 1.6 | 1.6 | 0.00 | 0.00 | 0.00 | 42 | 1014.9 |
| 20260906053200 | 20 | 324 | 4.8 | 4.8 | 0.00 | 0.00 | 0.00 | 42 | 1014.6 |
| 20260906052700 | 20 | 322 | 8.0 | 11.3 | 0.00 | 0.00 | 0.00 | 39 | 1014.6 |
| 20260906052201 | 20 | 357 | 3.2 | 3.2 | 0.00 | 0.00 | 0.00 | 40 | 1014.9 |
| 20260906051700 | 20 | 357 | 4.8 | 8.0 | 0.00 | 0.00 | 0.00 | 39 | 1014.9 |
| 20260906051200 | 20 | 351 | 3.2 | 4.8 | 0.00 | 0.00 | 0.00 | 39 | 1014.9 |
| 20260906050700 | 20 | 353 | 8.0 | 9.7 | 0.00 | 0.00 | 0.00 | 38 | 1014.6 |
| 20260906050201 | 20 | 22 | 8.0 | 12.9 | 0.00 | 0.00 | 0.00 | 38 | 1014.9 |
| 20260906045700 | 20 | 351 | 9.7 | 12.9 | 0.00 | 0.00 | 0.00 | 38 | 1014.9 |
| 20260906045200 | 20 | 327 | 17.7 | 22.5 | 0.00 | 0.00 | 0.00 | 38 | 1014.9 |
| 20260906044700 | 20 | 324 | 14.5 | 16.1 | 0.00 | 0.00 | 0.00 | 37 | 1014.6 |
| 20260906044200 | 20 | 354 | 11.3 | 12.9 | 0.00 | 0.00 | 0.00 | 36 | 1014.6 |
| 20260906043701 | 20 | 351 | 6.4 | 8.0 | 0.00 | 0.00 | 0.00 | 36 | 1014.6 |
| 20260906043200 | 20 | 8 | 6.4 | 8.0 | 0.00 | 0.00 | 0.00 | 35 | 1014.2 |
| 20260906042700 | 20 | 9 | 12.9 | 14.5 | 0.00 | 0.00 | 0.00 | 35 | 1014.6 |
| 20260906042200 | 20 | 347 | 11.3 | 12.9 | 0.00 | 0.00 | 0.00 | 35 | 1014.6 |
| 20260906041700 | 19 | 326 | 4.8 | 4.8 | 0.00 | 0.00 | 0.00 | 35 | 1014.6 |
| 20260906041201 | 18 | 54 | 4.8 | 4.8 | 0.00 | 0.00 | 0.00 | 36 | 1014.6 |
| 20260906040700 | 18 | 37 | 6.4 | 8.0 | 0.00 | 0.00 | 0.00 | 36 | 1014.6 |
| 20260906040200 | 18 | 110 | 8.0 | 9.7 | 0.00 | 0.00 | 0.00 | 36 | 1014.6 |
| 20260906035700 | 18 | 20 | 8.0 | 8.0 | 0.00 | 0.00 | 0.00 | 36 | 1014.6 |
| 20260906035200 | 18 | 21 | 9.7 | 11.3 | 0.00 | 0.00 | 0.00 | 36 | 1014.6 |
| 20260906034700 | 18 | 352 | 8.0 | 11.3 | 0.00 | 0.00 | 0.00 | 36 | 1014.6 |
| 20260906034200 | 18 | 350 | 11.3 | 12.9 | 0.00 | 0.00 | 0.00 | 36 | 1014.2 |
| 20260906033700 | 18 | 26 | 11.3 | 11.3 | 0.00 | 0.00 | 0.00 | 36 | 1014.6 |
| 20260906033200 | 18 | 13 | 8.0 | 9.7 | 0.00 | 0.00 | 0.00 | 36 | 1014.2 |
| 20260906032701 | 18 | 25 | 12.9 | 12.9 | 0.00 | 0.00 | 0.00 | 36 | 1014.2 |
| 20260906032200 | 18 | 355 | 14.5 | 16.1 | 0.00 | 0.00 | 0.00 | 36 | 1014.2 |
| 20260906031700 | 18 | 344 | 6.4 | 8.0 | 0.00 | 0.00 | 0.00 | 36 | 1014.2 |
| 20260906031201 | 18 | 356 | 14.5 | 20.9 | 0.00 | 0.00 | 0.00 | 36 | 1014.2 |
| 20260906030700 | 18 | 342 | 9.7 | 12.9 | 0.00 | 0.00 | 0.00 | 36 | 1014.2 |
| 20260906030159 | 18 | 345 | 19.3 | 25.7 | 0.00 | 0.00 | 0.00 | 36 | 1014.2 |
| 20260906025700 | 18 | 324 | 11.3 | 12.9 | 0.00 | 0.00 | 0.00 | 37 | 1014.2 |
| 20260906025200 | 18 | 345 | 8.0 | 9.7 | 0.00 | 0.00 | 0.00 | 38 | 1014.2 |
| 20260906024700 | 18 | 342 | 12.9 | 16.1 | 0.00 | 0.00 | 0.00 | 37 | 1014.2 |
| 20260906024201 | 18 | 8 | 12.9 | 14.5 | 0.00 | 0.00 | 0.00 | 37 | 1014.2 |
| 20260906023700 | 18 | 354 | 12.9 | 16.1 | 0.00 | 0.00 | 0.00 | 37 | 1014.2 |
| 20260906023200 | 18 | 336 | 8.0 | 11.3 | 0.00 | 0.00 | 0.00 | 37 | 1014.2 |
| 20260906022701 | 18 | 330 | 8.0 | 11.3 | 0.00 | 0.00 | 0.00 | 37 | 1014.2 |
| 20260906022200 | 18 | 337 | 17.7 | 20.9 | 0.00 | 0.00 | 0.00 | 35 | 1014.2 |
| 20260906021700 | 18 | 327 | 19.3 | 20.9 | 0.00 | 0.00 | 0.00 | 33 | 1014.2 |
| 20260906021200 | 18 | 339 | 14.5 | 16.1 | 0.00 | 0.00 | 0.00 | 36 | 1014.2 |
| 20260906020700 | 18 | 333 | 11.3 | 12.9 | 0.00 | 0.00 | 0.00 | 34 | 1014.6 |
| 20260906020200 | 18 | 328 | 9.7 | 11.3 | 0.00 | 0.00 | 0.00 | 37 | 1014.2 |
| 20260906015700 | 18 | 349 | 11.3 | 12.9 | 0.00 | 0.00 | 0.00 | 34 | 1014.2 |
| 20260906015201 | 18 | 346 | 16.1 | 16.1 | 0.00 | 0.00 | 0.00 | 35 | 1014.2 |
| 20260906014700 | 18 | 339 | 12.9 | 20.9 | 0.00 | 0.00 | 0.00 | 37 | 1014.2 |
| 20260906014200 | 18 | 15 | 14.5 | 14.5 | 0.00 | 0.00 | 0.00 | 36 | 1014.2 |
| 20260906013700 | 18 | 16 | 16.1 | 16.1 | 0.00 | 0.00 | 0.00 | 36 | 1014.2 |
| 20260906013200 | 18 | 324 | 16.1 | 17.7 | 0.00 | 0.00 | 0.00 | 36 | 1014.2 |
| 20260906012700 | 18 | 355 | 6.4 | 8.0 | 0.00 | 0.00 | 0.00 | 41 | 1014.2 |
| 20260906012201 | 18 | 18 | 11.3 | 14.5 | 0.00 | 0.00 | 0.00 | 41 | 1014.2 |
| 20260906011701 | 17 | 20 | 12.9 | 16.1 | 0.00 | 0.00 | 0.00 | 42 | 1014.2 |
| 20260906011200 | 17 | 359 | 6.4 | 8.0 | 0.00 | 0.00 | 0.00 | 43 | 1014.2 |
| 20260906010701 | 18 | 22 | 11.3 | 11.3 | 0.00 | 0.00 | 0.00 | 43 | 1014.6 |
| 20260906010200 | 18 | 34 | 6.4 | 9.7 | 0.00 | 0.00 | 0.00 | 43 | 1014.2 |
| 20260906005702 | 18 | 360 | 8.0 | 9.7 | 0.00 | 0.00 | 0.00 | 43 | 1014.2 |
| 20260906005200 | 18 | 3 | 9.7 | 12.9 | 0.00 | 0.00 | 0.00 | 43 | 1014.2 |
| 20260906004700 | 18 | 45 | 4.8 | 8.0 | 0.00 | 0.00 | 0.00 | 44 | 1014.2 |
| 20260906004159 | 18 | 332 | 9.7 | 12.9 | 0.00 | 0.00 | 0.00 | 45 | 1014.2 |
| 20260906003700 | 18 | 341 | 11.3 | 14.5 | 0.00 | 0.00 | 0.00 | 46 | 1014.2 |
| 20260906003200 | 18 | 1 | 11.3 | 12.9 | 0.00 | 0.00 | 0.00 | 48 | 1014.2 |
| 20260906002700 | 18 | 330 | 14.5 | 16.1 | 0.00 | 0.00 | 0.00 | 49 | 1014.2 |
| 20260906002201 | 18 | 318 | 14.5 | 17.7 | 0.00 | 0.00 | 0.00 | 47 | 1014.2 |
| 20260906001700 | 18 | 326 | 16.1 | 20.9 | 0.00 | 0.00 | 0.00 | 50 | 1014.2 |
| 20260906001201 | 18 | 20 | 14.5 | 16.1 | 0.00 | 0.00 | 0.00 | 51 | 1014.2 |
| 20260906000700 | 18 | 15 | 14.5 | 16.1 | 0.00 | 0.00 | 0.00 | 50 | 1014.2 |
| 20260906000200 | 18 | 359 | 9.7 | 11.3 | 0.00 | 0.00 | 0.00 | 53 | 1014.2 |
| 20260905235702 | 17 | 340 | 12.9 | 14.5 | 0.00 | 0.00 | 0.00 | 54 | 1014.2 |
| 20260905235200 | 17 | 327 | 11.3 | 14.5 | 0.00 | 0.00 | 0.00 | 55 | 1014.2 |
| 20260905234700 | 17 | 338 | 14.5 | 16.1 | 0.00 | 0.00 | 0.00 | 56 | 1014.6 |
| 20260905234200 | 17 | 338 | 11.3 | 12.9 | 0.00 | 0.00 | 0.00 | 57 | 1014.2 |
| 20260905233700 | 18 | 333 | 14.5 | 14.5 | 0.00 | 0.00 | 0.00 | 58 | 1014.2 |
| 20260905233200 | 18 | 334 | 12.9 | 14.5 | 0.00 | 0.00 | 0.00 | 57 | 1014.2 |
| 20260905232700 | 18 | 320 | 12.9 | 14.5 | 0.00 | 0.00 | 0.00 | 58 | 1014.2 |
| 20260905232200 | 18 | 340 | 12.9 | 14.5 | 0.00 | 0.00 | 0.00 | 60 | 1014.2 |
| 20260905231700 | 18 | 339 | 20.9 | 25.7 | 0.00 | 0.00 | 0.00 | 59 | 1014.2 |
| 20260905231200 | 18 | 356 | 11.3 | 17.7 | 0.00 | 0.00 | 0.00 | 59 | 1014.2 |
| 20260905230700 | 18 | 329 | 12.9 | 17.7 | 0.00 | 0.00 | 0.00 | 59 | 1014.2 |
| 20260905230200 | 18 | 359 | 14.5 | 24.1 | 0.00 | 0.00 | 0.00 | 59 | 1014.2 |
| 20260905225700 | 18 | 358 | 17.7 | 20.9 | 0.00 | 0.00 | 0.00 | 60 | 1014.2 |
| 20260905225200 | 18 | 333 | 14.5 | 14.5 | 0.00 | 0.00 | 0.00 | 59 | 1014.2 |
| 20260905224700 | 18 | 335 | 16.1 | 17.7 | 0.00 | 0.00 | 0.00 | 59 | 1014.2 |
| 20260905224200 | 18 | 340 | 14.5 | 16.1 | 0.00 | 0.00 | 0.00 | 62 | 1014.2 |
| 20260905223701 | 18 | 9 | 12.9 | 16.1 | 0.00 | 0.00 | 0.00 | 63 | 1014.2 |
| 20260905223201 | 18 | 358 | 16.1 | 22.5 | 0.00 | 0.00 | 0.00 | 63 | 1014.2 |
| 20260905222701 | 18 | 349 | 12.9 | 14.5 | 0.00 | 0.00 | 0.00 | 63 | 1014.6 |
| 20260905222200 | 18 | 340 | 12.9 | 14.5 | 0.00 | 0.00 | 0.00 | 65 | 1014.6 |
| 20260905221700 | 18 | 11 | 16.1 | 17.7 | 0.00 | 0.00 | 0.00 | 65 | 1014.6 |
| 20260905221200 | 18 | 350 | 14.5 | 17.7 | 0.00 | 0.00 | 0.00 | 65 | 1014.6 |
| 20260905220700 | 18 | 349 | 17.7 | 22.5 | 0.00 | 0.00 | 0.00 | 65 | 1014.6 |
| 20260905220201 | 18 | 336 | 16.1 | 17.7 | 0.00 | 0.00 | 0.00 | 65 | 1014.6 |
| 20260905215700 | 19 | 338 | 14.5 | 16.1 | 0.00 | 0.00 | 0.00 | 65 | 1014.6 |
| 20260905215200 | 19 | 336 | 17.7 | 20.9 | 0.00 | 0.00 | 0.00 | 64 | 1014.9 |
| 20260905214701 | 19 | 2 | 14.5 | 16.1 | 0.00 | 0.00 | 0.00 | 63 | 1014.6 |
| 20260905214200 | 19 | 332 | 14.5 | 16.1 | 0.00 | 0.00 | 0.00 | 64 | 1014.9 |
| 20260905213700 | 19 | 351 | 17.7 | 17.7 | 0.00 | 0.00 | 0.00 | 64 | 1014.6 |
| 20260905213200 | 19 | 341 | 16.1 | 20.9 | 0.00 | 0.00 | 0.00 | 64 | 1014.9 |
| 20260905212732 | 19 | 21 | 11.3 | 12.9 | 0.00 | 0.00 | 0.00 | 56 | 1014.9 |
| 20260905212200 | 19 | 25 | 12.9 | 14.5 | 0.00 | 0.00 | 0.00 | 44 | 1014.9 |
| 20260905211700 | 19 | 28 | 16.1 | 17.7 | 0.00 | 0.00 | 0.00 | 40 | 1014.9 |
| 20260905211202 | 19 | 4 | 11.3 | 12.9 | 0.00 | 0.00 | 0.00 | 42 | 1014.9 |
| 20260905210700 | 19 | 21 | 16.1 | 17.7 | 0.00 | 0.00 | 0.00 | 47 | 1014.9 |
| 20260905210200 | 19 | 19 | 14.5 | 16.1 | 0.00 | 0.00 | 0.00 | 46 | 1014.9 |
| 20260905205700 | 19 | 23 | 9.7 | 12.9 | 0.00 | 0.00 | 0.00 | 51 | 1014.9 |
| 20260905205201 | 19 | 12 | 11.3 | 12.9 | 0.00 | 0.00 | 0.00 | 47 | 1014.9 |
| 20260905204700 | 19 | 23 | 11.3 | 12.9 | 0.00 | 0.00 | 0.00 | 46 | 1014.9 |
| 20260905204200 | 19 | 11 | 9.7 | 11.3 | 0.00 | 0.00 | 0.00 | 47 | 1015.2 |
| 20260905203701 | 19 | 15 | 12.9 | 12.9 | 0.00 | 0.00 | 0.00 | 46 | 1015.2 |
| 20260905203201 | 19 | 38 | 12.9 | 12.9 | 0.00 | 0.00 | 0.00 | 49 | 1015.2 |
| 20260905202701 | 19 | 40 | 17.7 | 20.9 | 0.00 | 0.00 | 0.00 | 50 | 1014.9 |
| 20260905202200 | 19 | 1 | 17.7 | 17.7 | 0.00 | 0.00 | 0.00 | 49 | 1015.2 |
| 20260905201700 | 19 | 81 | 11.3 | 12.9 | 0.00 | 0.00 | 0.00 | 47 | 1015.2 |
| 20260905201201 | 20 | 28 | 14.5 | 14.5 | 0.00 | 0.00 | 0.00 | 53 | 1015.2 |
| 20260905200700 | 20 | 354 | 9.7 | 9.7 | 0.00 | 0.00 | 0.00 | 64 | 1015.2 |
| 20260905200201 | 20 | 84 | 8.0 | 9.7 | 0.00 | 0.00 | 0.00 | 61 | 1015.2 |
| 20260905195700 | 20 | 10 | 6.4 | 8.0 | 0.00 | 0.00 | 0.00 | 64 | 1015.2 |
| 20260905195200 | 19 | 24 | 11.3 | 12.9 | 0.00 | 0.00 | 0.00 | 65 | 1015.2 |
| 20260905194701 | 19 | 346 | 12.9 | 14.5 | 0.00 | 0.00 | 0.00 | 66 | 1015.2 |
| 20260905194200 | 20 | 327 | 12.9 | 14.5 | 0.00 | 0.00 | 0.00 | 65 | 1015.2 |
| 20260905193705 | 20 | 305 | 14.5 | 16.1 | 0.00 | 0.00 | 0.00 | 65 | 1015.2 |
| 20260905193200 | 20 | 10 | 14.5 | 16.1 | 0.00 | 0.00 | 0.00 | 65 | 1015.2 |
| 20260905192700 | 20 | 342 | 16.1 | 17.7 | 0.00 | 0.00 | 0.00 | 64 | 1015.2 |
| 20260905192200 | 20 | 325 | 14.5 | 16.1 | 0.00 | 0.00 | 0.00 | 64 | 1015.2 |
| 20260905191700 | 20 | 15 | 14.5 | 16.1 | 0.00 | 0.00 | 0.00 | 64 | 1015.2 |
| 20260905191200 | 20 | 353 | 8.0 | 11.3 | 0.00 | 0.00 | 0.00 | 64 | 1015.2 |
| 20260905190700 | 20 | 344 | 20.9 | 24.1 | 0.00 | 0.00 | 0.00 | 64 | 1015.2 |
| 20260905190200 | 20 | 345 | 14.5 | 16.1 | 0.00 | 0.00 | 0.00 | 62 | 1015.2 |
| 20260905185700 | 20 | 351 | 14.5 | 17.7 | 0.00 | 0.00 | 0.00 | 62 | 1015.2 |
| 20260905185200 | 20 | 341 | 12.9 | 14.5 | 0.00 | 0.00 | 0.00 | 63 | 1015.2 |
| 20260905184700 | 20 | 350 | 16.1 | 17.7 | 0.00 | 0.00 | 0.00 | 63 | 1015.2 |
| 20260905184201 | 20 | 334 | 16.1 | 16.1 | 0.00 | 0.00 | 0.00 | 61 | 1015.2 |
| 20260905183700 | 20 | 348 | 16.1 | 17.7 | 0.00 | 0.00 | 0.00 | 60 | 1015.6 |
| 20260905183200 | 20 | 330 | 14.5 | 16.1 | 0.00 | 0.00 | 0.00 | 58 | 1015.2 |
| 20260905182700 | 20 | 326 | 14.5 | 14.5 | 0.00 | 0.00 | 0.00 | 58 | 1015.2 |
| 20260905182200 | 20 | 331 | 17.7 | 20.9 | 0.00 | 0.00 | 0.00 | 57 | 1015.2 |
| 20260905181700 | 20 | 349 | 16.1 | 20.9 | 0.00 | 0.00 | 0.00 | 57 | 1015.2 |
| 20260905181202 | 20 | 353 | 19.3 | 22.5 | 0.00 | 0.00 | 0.00 | 57 | 1015.2 |
| 20260905180700 | 20 | 345 | 17.7 | 22.5 | 0.00 | 0.00 | 0.00 | 58 | 1015.2 |
| 20260905180200 | 20 | 336 | 9.7 | 11.3 | 0.00 | 0.00 | 0.00 | 57 | 1015.2 |
| 20260905175700 | 20 | 320 | 12.9 | 14.5 | 0.00 | 0.00 | 0.00 | 57 | 1015.2 |
| 20260905175200 | 20 | 323 | 11.3 | 14.5 | 0.00 | 0.00 | 0.00 | 57 | 1015.2 |
| 20260905174700 | 20 | 335 | 9.7 | 11.3 | 0.00 | 0.00 | 0.00 | 57 | 1015.6 |
| 20260905174200 | 20 | 346 | 12.9 | 16.1 | 0.00 | 0.00 | 0.00 | 57 | 1015.2 |
| 20260905173700 | 20 | 353 | 11.3 | 12.9 | 0.00 | 0.00 | 0.00 | 57 | 1015.2 |
| 20260905173200 | 20 | 353 | 14.5 | 16.1 | 0.00 | 0.00 | 0.00 | 56 | 1015.2 |
| 20260905172700 | 20 | 341 | 11.3 | 12.9 | 0.00 | 0.00 | 0.00 | 56 | 1015.2 |
| 20260905172200 | 20 | 342 | 11.3 | 12.9 | 0.00 | 0.00 | 0.00 | 55 | 1015.2 |
| 20260905171700 | 20 | 339 | 8.0 | 9.7 | 0.00 | 0.00 | 0.00 | 55 | 1015.2 |
| 20260905171200 | 20 | 310 | 8.0 | 9.7 | 0.00 | 0.00 | 0.00 | 55 | 1015.2 |
| 20260905170701 | 20 | 330 | 12.9 | 14.5 | 0.00 | 0.00 | 0.00 | 54 | 1015.2 |
| 20260905170200 | 20 | 355 | 12.9 | 14.5 | 0.00 | 0.00 | 0.00 | 55 | 1014.9 |
| 20260905165700 | 20 | 330 | 14.5 | 14.5 | 0.00 | 0.00 | 0.00 | 55 | 1014.9 |
| 20260905165200 | 21 | 343 | 14.5 | 17.7 | 0.00 | 0.00 | 0.00 | 55 | 1014.6 |
| 20260905164701 | 21 | 325 | 11.3 | 12.9 | 0.00 | 0.00 | 0.00 | 55 | 1014.9 |
| 20260905164200 | 21 | 312 | 14.5 | 14.5 | 0.00 | 0.00 | 0.00 | 54 | 1014.9 |
| 20260905163700 | 21 | 319 | 11.3 | 12.9 | 0.00 | 0.00 | 0.00 | 55 | 1014.9 |
| 20260905163201 | 21 | 325 | 14.5 | 16.1 | 0.00 | 0.00 | 0.00 | 55 | 1014.6 |
| 20260905162701 | 21 | 315 | 12.9 | 14.5 | 0.00 | 0.00 | 0.00 | 55 | 1014.6 |
| 20260905162202 | 21 | 329 | 16.1 | 17.7 | 0.00 | 0.00 | 0.00 | 55 | 1014.6 |
| 20260905161702 | 21 | 318 | 9.7 | 12.9 | 0.00 | 0.00 | 0.00 | 55 | 1014.9 |
| 20260905161200 | 21 | 292 | 16.1 | 16.1 | 0.00 | 0.00 | 0.00 | 54 | 1014.6 |
| 20260905160700 | 21 | 317 | 12.9 | 12.9 | 0.00 | 0.00 | 0.00 | 54 | 1014.6 |
| 20260905160201 | 21 | 282 | 9.7 | 12.9 | 0.00 | 0.00 | 0.00 | 54 | 1014.6 |
| 20260905155700 | 21 | 328 | 12.9 | 12.9 | 0.00 | 0.00 | 0.00 | 54 | 1014.6 |
| 20260905155200 | 21 | 318 | 11.3 | 12.9 | 0.00 | 0.00 | 0.00 | 53 | 1014.9 |
| 20260905154700 | 21 | 342 | 9.7 | 12.9 | 0.00 | 0.00 | 0.00 | 52 | 1014.6 |
| 20260905154200 | 21 | 310 | 8.0 | 11.3 | 0.00 | 0.00 | 0.00 | 52 | 1014.6 |
| 20260905153700 | 21 | 295 | 11.3 | 11.3 | 0.00 | 0.00 | 0.00 | 53 | 1014.9 |
| 20260905153200 | 22 | 319 | 4.8 | 8.0 | 0.00 | 0.00 | 0.00 | 52 | 1014.6 |
| 20260905152701 | 22 | 286 | 9.7 | 11.3 | 0.00 | 0.00 | 0.00 | 51 | 1014.6 |
| 20260905152200 | 22 | 266 | 8.0 | 8.0 | 0.00 | 0.00 | 0.00 | 51 | 1014.6 |
| 20260905151700 | 22 | 312 | 8.0 | 12.9 | 0.00 | 0.00 | 0.00 | 51 | 1014.6 |
| 20260905151200 | 22 | 329 | 8.0 | 9.7 | 0.00 | 0.00 | 0.00 | 50 | 1014.6 |
| 20260905150700 | 23 | 262 | 12.9 | 14.5 | 0.00 | 0.00 | 0.00 | 49 | 1014.6 |
| 20260905150200 | 23 | 316 | 6.4 | 11.3 | 0.00 | 0.00 | 0.00 | 48 | 1014.6 |
| 20260905145700 | 23 | 261 | 14.5 | 16.1 | 0.00 | 0.00 | 0.00 | 47 | 1014.6 |
| 20260905145201 | 23 | 219 | 11.3 | 14.5 | 0.00 | 0.00 | 0.00 | 47 | 1014.6 |
| 20260905144701 | 23 | 290 | 9.7 | 12.9 | 0.00 | 0.00 | 0.00 | 47 | 1014.6 |
| 20260905144200 | 23 | 285 | 4.8 | 4.8 | 0.00 | 0.00 | 0.00 | 46 | 1014.6 |
| 20260905143701 | 23 | 283 | 14.5 | 22.5 | 0.00 | 0.00 | 0.00 | 45 | 1014.6 |
| 20260905143200 | 24 | 247 | 12.9 | 17.7 | 0.00 | 0.00 | 0.00 | 45 | 1014.6 |
| 20260905142702 | 24 | 316 | 6.4 | 9.7 | 0.00 | 0.00 | 0.00 | 43 | 1014.6 |
| 20260905142202 | 24 | 294 | 16.1 | 20.9 | 0.00 | 0.00 | 0.00 | 43 | 1014.6 |
| 20260905141701 | 24 | 267 | 11.3 | 22.5 | 0.00 | 0.00 | 0.00 | 42 | 1014.6 |
| 20260905141200 | 25 | 269 | 9.7 | 14.5 | 0.00 | 0.00 | 0.00 | 43 | 1014.6 |
| 20260905140700 | 25 | 291 | 9.7 | 14.5 | 0.00 | 0.00 | 0.00 | 42 | 1014.2 |
| 20260905140200 | 25 | 207 | 14.5 | 20.9 | 0.00 | 0.00 | 0.00 | 41 | 1014.2 |
| 20260905135700 | 26 | 272 | 6.4 | 11.3 | 0.00 | 0.00 | 0.00 | 39 | 1014.2 |
| 20260905135200 | 26 | 328 | 6.4 | 11.3 | 0.00 | 0.00 | 0.00 | 35 | 1014.2 |
| 20260905134700 | 26 | 214 | 9.7 | 14.5 | 0.00 | 0.00 | 0.00 | 38 | 1014.6 |
| 20260905134200 | 27 | 185 | 8.0 | 9.7 | 0.00 | 0.00 | 0.00 | 37 | 1014.2 |
| 20260905133700 | 28 | 62 | 4.8 | 4.8 | 0.00 | 0.00 | 0.00 | 19 | 1014.6 |
| 20260905133200 | 27 | 202 | 6.4 | 9.7 | 0.00 | 0.00 | 0.00 | 20 | 1014.2 |
| 20260905132700 | 27 | 134 | 6.4 | 8.0 | 0.00 | 0.00 | 0.00 | 20 | 1014.6 |
| 20260905132202 | 27 | 184 | 11.3 | 17.7 | 0.00 | 0.00 | 0.00 | 20 | 1014.6 |
| 20260905131702 | 28 | 260 | 3.2 | 4.8 | 0.00 | 0.00 | 0.00 | 20 | 1014.6 |
| 20260905131200 | 27 | 246 | 1.6 | 1.6 | 0.00 | 0.00 | 0.00 | 20 | 1014.2 |
| 20260905130700 | 27 | 206 | 9.7 | 14.5 | 0.00 | 0.00 | 0.00 | 21 | 1014.6 |
| 20260905130206 | 27 | 152 | 6.4 | 8.0 | 0.00 | 0.00 | 0.00 | 21 | 1014.6 |
| 20260905125700 | 28 | 125 | 3.2 | 3.2 | 0.00 | 0.00 | 0.00 | 19 | 1014.6 |
| 20260905125201 | 28 | 280 | 4.8 | 4.8 | 0.00 | 0.00 | 0.00 | 19 | 1014.6 |
| 20260905124700 | 27 | 137 | 9.7 | 12.9 | 0.00 | 0.00 | 0.00 | 19 | 1014.6 |
| 20260905124200 | 28 | 150 | 6.4 | 8.0 | 0.00 | 0.00 | 0.00 | 20 | 1014.6 |
| 20260905123700 | 27 | 194 | 4.8 | 8.0 | 0.00 | 0.00 | 0.00 | 19 | 1014.6 |